Time;durP1;ratioP1;P1;durP2;ratioP2;P2;SDS_P1;SDS_P2;PMS_P1;PMS_P2;Temp;Humidity;BMP_temperature;BMP_pressure;BME280_temperature;BME280_humidity;BME280_pressure;Samples;Min_cycle;Max_cycle;Signal;HPM_P1;HPM_P2
2022/10/28 00:02:17;;;;;;;9.90;6.18;;;;;;;12.03;56.67;96163.41;5030323;28;20198;-69
2022/10/28 00:04:43;;;;;;;11.27;7.07;;;;;;;12.05;56.67;96151.75;5026373;28;20197;-70
2022/10/28 00:07:08;;;;;;;9.63;6.90;;;;;;;12.14;56.38;96158.91;5031442;28;20568;-71
2022/10/28 00:09:33;;;;;;;9.82;7.15;;;;;;;12.12;56.32;96145.00;5030377;28;20186;-72
2022/10/28 00:11:59;;;;;;;9.35;7.00;;;;;;;12.10;56.55;96160.13;5032350;28;20288;-72
2022/10/28 00:14:25;;;;;;;11.52;7.35;;;;;;;12.05;56.84;96156.22;5026518;28;20273;-71
2022/10/28 00:16:50;;;;;;;7.93;6.78;;;;;;;11.73;57.65;96146.59;5026493;28;20207;-69
2022/10/28 00:19:16;;;;;;;8.60;7.22;;;;;;;11.90;57.42;96158.38;5032488;28;20186;-70
2022/10/28 00:21:43;;;;;;;10.30;6.82;;;;;;;11.87;57.57;96153.38;5032729;28;20185;-70
2022/10/28 00:24:10;;;;;;;12.82;7.50;;;;;;;11.87;57.37;96156.84;5030432;28;21000;-70
2022/10/28 00:26:41;;;;;;;10.38;6.57;;;;;;;11.89;57.56;96156.69;5028546;28;20190;-70
2022/10/28 00:29:08;;;;;;;8.68;5.90;;;;;;;11.91;56.89;96152.97;5020934;28;20278;-70
2022/10/28 00:31:35;;;;;;;8.45;5.97;;;;;;;11.84;57.11;96157.09;5031841;28;20210;-70
2022/10/28 00:34:03;;;;;;;10.05;5.65;;;;;;;11.68;57.42;96161.97;5028279;28;20249;-71
2022/10/28 00:36:31;;;;;;;7.80;6.18;;;;;;;11.70;57.38;96152.97;5024795;28;20198;-71
2022/10/28 00:38:57;;;;;;;8.30;6.35;;;;;;;11.72;57.21;96149.38;5030736;28;20234;-71
2022/10/28 00:41:32;;;;;;;8.95;5.95;;;;;;;11.76;56.95;96142.88;5030240;28;20183;-71
2022/10/28 00:44:02;;;;;;;8.02;5.38;;;;;;;11.79;57.05;96132.91;5031221;28;20189;-71
2022/10/28 00:46:34;;;;;;;8.90;5.88;;;;;;;11.80;56.85;96147.75;5025143;28;20178;-70
2022/10/28 00:49:05;;;;;;;10.65;6.40;;;;;;;11.63;57.16;96143.94;5032014;28;20182;-70
2022/10/28 00:51:34;;;;;;;8.80;5.90;;;;;;;11.50;58.02;96145.09;5028437;28;20189;-70
2022/10/28 00:54:00;;;;;;;9.68;5.95;;;;;;;11.55;57.83;96145.56;5027235;28;20179;-70
2022/10/28 00:56:32;;;;;;;6.88;5.57;;;;;;;11.59;57.80;96149.59;5026179;28;20279;-71
2022/10/28 00:59:01;;;;;;;8.85;6.25;;;;;;;11.47;58.29;96151.47;5029668;28;20182;-70
2022/10/28 01:01:26;;;;;;;9.43;6.70;;;;;;;11.51;58.38;96150.22;5029233;28;20664;-70
2022/10/28 01:03:54;;;;;;;8.35;6.30;;;;;;;11.53;57.78;96145.69;5025333;28;20182;-70
2022/10/28 01:06:20;;;;;;;12.45;6.22;;;;;;;11.46;58.02;96145.34;5032066;28;20241;-70
2022/10/28 01:08:45;;;;;;;10.45;6.32;;;;;;;11.34;58.28;96149.03;5023538;28;20182;-69
2022/10/28 01:11:33;;;;;;;7.43;5.90;;;;;;;11.37;58.37;96146.13;5029117;28;20285;-70
2022/10/28 01:14:20;;;;;;;9.80;6.43;;;;;;;11.54;57.54;96147.34;5029499;28;20762;-70
2022/10/28 01:17:03;;;;;;;9.90;5.97;;;;;;;11.46;58.24;96155.88;5023655;28;20241;-70
2022/10/28 01:20:00;;;;;;;7.13;6.43;;;;;;;11.40;58.29;96147.69;5030211;28;20236;-70
2022/10/28 01:22:35;;;;;;;8.18;6.50;;;;;;;11.09;59.39;96147.59;5026840;28;20191;-70
2022/10/28 01:25:28;;;;;;;7.13;5.55;;;;;;;11.34;58.55;96150.84;5029017;28;20197;-70
2022/10/28 01:28:34;;;;;;;7.07;5.63;;;;;;;11.15;58.83;96146.28;5027729;28;20212;-69
2022/10/28 01:31:36;;;;;;;7.88;6.15;;;;;;;11.15;59.35;96155.00;5025254;28;20962;-69
2022/10/28 01:34:17;;;;;;;7.00;6.28;;;;;;;11.27;58.87;96148.69;5028579;28;20186;-68
2022/10/28 01:36:45;;;;;;;8.45;6.20;;;;;;;11.29;58.60;96151.22;5030517;28;20220;-68
2022/10/28 01:39:16;;;;;;;7.88;6.38;;;;;;;11.30;58.57;96157.31;5029690;28;20246;-69
2022/10/28 01:41:52;;;;;;;7.63;6.03;;;;;;;11.12;59.04;96157.03;5022699;28;20277;-69
2022/10/28 01:44:40;;;;;;;9.65;5.88;;;;;;;11.04;59.02;96155.88;5029964;28;20186;-69
2022/10/28 01:47:47;;;;;;;11.02;5.78;;;;;;;11.11;58.86;96150.09;5028149;28;20178;-69
2022/10/28 01:50:37;;;;;;;8.00;5.72;;;;;;;11.06;59.26;96157.53;4933078;29;20660;-69
2022/10/28 01:53:08;;;;;;;8.10;6.57;;;;;;;10.89;59.64;96148.41;4930538;29;20189;-69
2022/10/28 01:55:47;;;;;;;7.32;5.45;;;;;;;10.83;60.10;96155.00;4937571;29;20231;-69
2022/10/28 01:58:18;;;;;;;7.43;5.53;;;;;;;10.86;59.82;96154.75;4948649;29;20331;-68
2022/10/28 02:00:45;;;;;;;7.85;6.22;;;;;;;10.93;59.46;96166.47;4934411;29;20301;-68
2022/10/28 02:03:11;;;;;;;8.38;5.85;;;;;;;10.84;59.80;96159.31;4948517;29;20192;-68
2022/10/28 02:05:40;;;;;;;15.38;6.13;;;;;;;10.77;59.92;96163.38;4950328;29;20196;-69
2022/10/28 02:08:18;;;;;;;10.98;6.65;;;;;;;10.73;60.06;96156.72;4932415;29;20239;-69
2022/10/28 02:11:08;;;;;;;9.95;6.22;;;;;;;10.73;60.06;96159.34;4932634;29;20331;-69
2022/10/28 02:13:58;;;;;;;11.60;6.88;;;;;;;10.67;60.41;96157.22;4934683;29;20255;-69
2022/10/28 02:16:48;;;;;;;11.38;6.43;;;;;;;10.73;60.07;96162.81;4938276;29;20201;-69
2022/10/28 02:19:26;;;;;;;11.05;6.65;;;;;;;10.71;60.00;96163.91;4948065;29;20264;-69
2022/10/28 02:22:23;;;;;;;9.27;6.10;;;;;;;10.70;60.07;96162.25;4933683;29;20193;-69
2022/10/28 02:25:03;;;;;;;9.00;5.53;;;;;;;10.68;60.11;96166.78;4894566;29;20573;-69
2022/10/28 02:27:33;;;;;;;9.63;5.32;;;;;;;10.58;60.16;96159.66;4969938;28;20662;-69
2022/10/28 02:30:10;;;;;;;7.05;5.55;;;;;;;10.44;60.73;96165.16;4990248;28;20196;-69
2022/10/28 02:32:40;;;;;;;9.95;5.50;;;;;;;10.51;60.49;96161.09;4974189;28;20221;-69
2022/10/28 02:35:13;;;;;;;5.60;4.97;;;;;;;10.60;60.26;96162.13;4974457;28;20195;-69
2022/10/28 02:37:41;;;;;;;6.60;4.88;;;;;;;10.52;60.39;96157.50;4972854;28;20232;-69
2022/10/28 02:40:13;;;;;;;8.68;4.82;;;;;;;10.69;59.78;96158.78;4973899;28;20199;-69
2022/10/28 02:42:48;;;;;;;7.15;5.07;;;;;;;10.65;60.03;96159.97;4972321;28;20210;-68
2022/10/28 02:45:17;;;;;;;6.32;4.78;;;;;;;10.52;60.08;96162.75;4988389;28;20195;-68
2022/10/28 02:47:55;;;;;;;9.15;5.55;;;;;;;10.50;60.43;96172.53;4968819;28;20184;-69
2022/10/28 02:50:26;;;;;;;5.90;4.65;;;;;;;10.49;60.32;96170.88;4989263;28;20215;-70
2022/10/28 02:52:56;;;;;;;8.18;5.63;;;;;;;10.41;60.93;96170.66;4973363;28;20928;-70
2022/10/28 02:55:25;;;;;;;10.18;5.38;;;;;;;10.34;61.18;96166.84;4973704;28;20211;-69
2022/10/28 02:57:50;;;;;;;7.72;5.15;;;;;;;10.45;60.98;96163.34;4989967;28;20640;-70
2022/10/28 03:00:23;;;;;;;8.70;5.75;;;;;;;10.20;61.31;96160.03;4977444;28;20191;-68
2022/10/28 03:02:48;;;;;;;8.85;5.40;;;;;;;10.29;61.12;96176.88;5018467;28;20206;-70
2022/10/28 03:05:14;;;;;;;8.88;5.28;;;;;;;10.23;61.11;96169.47;5029008;28;20251;-70
2022/10/28 03:07:40;;;;;;;9.93;5.30;;;;;;;10.26;60.56;96167.41;5019800;28;20187;-68
2022/10/28 03:10:06;;;;;;;6.05;5.20;;;;;;;10.26;60.76;96172.69;5027397;28;20194;-70
2022/10/28 03:12:31;;;;;;;6.68;5.05;;;;;;;10.25;60.70;96157.88;5024327;28;20200;-69
2022/10/28 03:14:57;;;;;;;9.10;5.32;;;;;;;10.11;61.12;96160.75;5029912;28;20190;-70
2022/10/28 03:17:22;;;;;;;10.77;5.28;;;;;;;10.05;61.33;96150.72;5026544;28;20576;-70
2022/10/28 03:19:47;;;;;;;6.10;4.95;;;;;;;10.07;61.33;96160.16;5027785;28;20197;-70
2022/10/28 03:22:13;;;;;;;9.45;5.25;;;;;;;10.00;61.82;96169.50;5029929;28;20205;-69
2022/10/28 03:24:38;;;;;;;6.15;5.10;;;;;;;9.99;61.70;96161.72;5029558;28;20179;-70
2022/10/28 03:27:04;;;;;;;7.05;5.85;;;;;;;9.98;62.05;96160.88;5029862;28;20562;-69
2022/10/28 03:29:29;;;;;;;8.52;5.05;;;;;;;9.76;62.53;96166.16;5023470;28;20186;-69
2022/10/28 03:31:55;;;;;;;6.78;5.03;;;;;;;9.88;61.81;96168.63;5025424;28;20328;-69
2022/10/28 03:34:20;;;;;;;9.30;5.22;;;;;;;10.03;61.56;96164.00;5025493;28;20200;-69
2022/10/28 03:36:45;;;;;;;7.22;6.25;;;;;;;9.97;61.31;96163.63;5027210;28;20183;-70
2022/10/28 03:39:11;;;;;;;9.77;6.38;;;;;;;9.85;62.02;96165.41;5027544;28;20226;-69
2022/10/28 03:41:36;;;;;;;13.77;6.47;;;;;;;9.84;62.18;96169.03;5027016;28;20626;-70
2022/10/28 03:44:02;;;;;;;12.27;6.40;;;;;;;9.82;62.23;96163.88;5029486;28;20190;-69
2022/10/28 03:46:27;;;;;;;15.45;6.30;;;;;;;9.76;62.29;96163.53;5026251;28;20190;-69
2022/10/28 03:48:53;;;;;;;12.25;6.75;;;;;;;9.71;62.80;96175.22;5028666;28;20178;-69
2022/10/28 03:51:18;;;;;;;9.98;5.93;;;;;;;9.84;62.31;96169.03;5025049;28;20661;-69
2022/10/28 03:53:44;;;;;;;9.73;6.18;;;;;;;9.78;62.42;96162.41;5029723;28;20197;-69
2022/10/28 03:56:10;;;;;;;9.48;5.95;;;;;;;9.57;63.21;96177.19;5024262;28;20214;-69
2022/10/28 03:58:35;;;;;;;9.90;6.50;;;;;;;9.74;62.40;96174.13;5028728;28;20898;-70
2022/10/28 04:01:01;;;;;;;13.75;6.85;;;;;;;9.82;62.20;96176.19;5021259;28;20190;-69
2022/10/28 04:03:26;;;;;;;8.35;6.55;;;;;;;9.72;61.94;96168.97;5023718;28;20190;-69
2022/10/28 04:05:52;;;;;;;13.90;6.75;;;;;;;9.82;61.92;96173.53;5027953;28;20225;-70
2022/10/28 04:08:18;;;;;;;10.15;6.60;;;;;;;9.88;61.54;96173.06;5027308;28;20178;-69
2022/10/28 04:10:44;;;;;;;10.68;6.30;;;;;;;9.88;61.69;96178.31;5029537;28;20182;-71
2022/10/28 04:13:10;;;;;;;13.32;6.63;;;;;;;9.81;61.50;96177.09;5024048;28;20216;-70
2022/10/28 04:15:35;;;;;;;11.77;8.45;;;;;;;9.69;62.31;96176.28;5028688;28;20660;-69
2022/10/28 04:18:01;;;;;;;13.35;8.80;;;;;;;9.80;61.88;96176.28;5025207;28;20202;-69
2022/10/28 04:20:28;;;;;;;14.40;8.35;;;;;;;9.62;62.30;96175.06;5025264;28;20194;-70
2022/10/28 04:22:53;;;;;;;19.50;10.83;;;;;;;9.59;62.41;96172.69;5022431;28;20213;-70
2022/10/28 04:25:23;;;;;;;22.88;15.80;;;;;;;9.53;62.82;96176.59;5024386;28;20190;-70
2022/10/28 04:27:49;;;;;;;28.07;18.13;;;;;;;9.57;62.69;96179.81;5023642;28;20273;-70
2022/10/28 04:30:15;;;;;;;30.05;21.10;;;;;;;9.57;62.98;96180.69;5025999;28;20573;-69
2022/10/28 04:32:41;;;;;;;35.30;24.00;;;;;;;9.67;62.63;96186.06;5026283;28;20269;-69
2022/10/28 04:35:08;;;;;;;31.02;24.42;;;;;;;9.77;62.11;96178.31;5030224;28;20278;-69
2022/10/28 04:37:33;;;;;;;27.73;24.13;;;;;;;9.78;61.99;96185.22;5031860;28;20231;-70
2022/10/28 04:39:59;;;;;;;37.70;29.00;;;;;;;9.78;62.13;96174.72;5031584;28;20178;-69
2022/10/28 04:42:24;;;;;;;30.92;24.02;;;;;;;9.69;62.12;96171.84;5025695;28;20190;-68
2022/10/28 04:44:50;;;;;;;27.33;22.63;;;;;;;9.86;61.63;96177.59;5030028;28;20276;-68
2022/10/28 04:47:16;;;;;;;26.10;22.00;;;;;;;9.48;62.51;96163.81;5030714;28;20285;-68
2022/10/28 04:49:42;;;;;;;23.92;21.05;;;;;;;9.65;62.42;96170.44;5026140;28;20201;-68
2022/10/28 04:52:07;;;;;;;25.10;21.67;;;;;;;9.81;61.78;96172.72;5027387;28;20190;-68
2022/10/28 04:54:32;;;;;;;21.87;18.60;;;;;;;9.85;61.81;96171.50;5025320;28;20190;-67
2022/10/28 04:56:58;;;;;;;21.10;18.83;;;;;;;9.83;61.96;96177.84;5030921;28;20357;-68
2022/10/28 04:59:23;;;;;;;23.05;19.05;;;;;;;9.79;61.93;96181.66;5029592;28;20749;-68
2022/10/28 05:01:49;;;;;;;20.95;18.67;;;;;;;9.68;62.31;96179.88;5026216;28;20263;-68
2022/10/28 05:04:14;;;;;;;28.65;17.90;;;;;;;9.66;62.57;96176.50;5026396;28;20950;-69
2022/10/28 05:06:49;;;;;;;21.48;15.57;;;;;;;9.70;62.55;96181.44;5024583;28;20780;-71
2022/10/28 05:09:18;;;;;;;22.75;15.82;;;;;;;9.53;62.87;96179.22;5023819;28;20205;-69
2022/10/28 05:11:43;;;;;;;18.48;13.18;;;;;;;9.60;62.71;96183.06;5030456;28;20230;-70
2022/10/28 05:14:09;;;;;;;17.40;11.85;;;;;;;9.52;63.17;96184.63;5029290;28;20214;-68
2022/10/28 05:16:34;;;;;;;23.37;15.90;;;;;;;9.46;63.24;96192.00;5028759;28;20211;-69
2022/10/28 05:18:59;;;;;;;25.60;14.27;;;;;;;9.21;64.03;96182.50;5027294;28;20312;-69
2022/10/28 05:21:25;;;;;;;21.33;13.70;;;;;;;9.34;64.26;96192.91;5028348;28;20201;-66
2022/10/28 05:23:50;;;;;;;23.08;14.80;;;;;;;9.17;64.77;96195.97;5031188;28;20551;-67
2022/10/28 05:26:16;;;;;;;17.80;13.70;;;;;;;9.17;64.72;96201.22;5025331;28;20197;-67
2022/10/28 05:28:42;;;;;;;13.13;11.73;;;;;;;9.36;64.48;96195.44;5027342;28;20205;-69
2022/10/28 05:31:08;;;;;;;12.70;10.70;;;;;;;9.59;63.78;96193.69;5021898;28;20237;-69
2022/10/28 05:33:33;;;;;;;16.63;10.60;;;;;;;9.77;62.63;96194.91;5026088;28;20268;-69
2022/10/28 05:35:59;;;;;;;18.80;10.73;;;;;;;9.83;62.13;96199.69;5013159;28;20204;-69
2022/10/28 05:38:25;;;;;;;16.87;10.57;;;;;;;9.80;62.25;96205.19;5040274;28;20241;-70
2022/10/28 05:40:50;;;;;;;22.38;11.50;;;;;;;9.82;62.47;96203.28;5025468;28;20198;-69
2022/10/28 05:43:16;;;;;;;14.27;9.65;;;;;;;9.86;62.58;96202.09;5028374;28;20186;-69
2022/10/28 05:45:41;;;;;;;15.88;9.93;;;;;;;9.83;62.77;96209.34;5026878;28;20307;-68
2022/10/28 05:48:07;;;;;;;16.00;9.80;;;;;;;9.75;63.18;96206.47;5027968;28;20224;-68
2022/10/28 05:50:32;;;;;;;17.83;10.32;;;;;;;9.74;63.24;96215.34;5028280;28;20187;-70
2022/10/28 05:52:58;;;;;;;16.27;10.43;;;;;;;9.92;62.72;96216.53;5030373;28;20556;-67
2022/10/28 05:55:27;;;;;;;17.23;9.30;;;;;;;9.83;63.10;96211.97;5027887;28;20657;-67
2022/10/28 05:57:53;;;;;;;19.90;9.48;;;;;;;9.53;63.76;96223.88;5028717;28;20210;-68
2022/10/28 06:00:21;;;;;;;16.20;9.77;;;;;;;9.81;63.50;96217.38;5030487;28;20186;-67
2022/10/28 06:02:47;;;;;;;14.07;9.25;;;;;;;10.01;62.79;96228.97;5028620;28;20198;-68
2022/10/28 06:05:13;;;;;;;12.63;9.85;;;;;;;9.96;62.72;96225.84;5028811;28;20193;-68
2022/10/28 06:07:39;;;;;;;16.77;10.77;;;;;;;9.96;63.05;96225.84;5028024;28;20182;-68
2022/10/28 06:10:07;;;;;;;18.95;11.40;;;;;;;10.11;62.59;96231.72;5027933;28;20786;-69
2022/10/28 06:12:32;;;;;;;13.50;10.40;;;;;;;9.94;62.88;96233.88;5021308;28;20191;-69
2022/10/28 06:14:58;;;;;;;27.67;11.33;;;;;;;10.06;63.07;96239.97;5028283;28;20700;-66
2022/10/28 06:17:23;;;;;;;21.38;11.80;;;;;;;10.23;62.74;96238.63;5022167;28;20305;-68
2022/10/28 06:19:49;;;;;;;20.60;11.20;;;;;;;10.50;61.40;96240.91;5024814;28;20252;-69
2022/10/28 06:22:15;;;;;;;19.57;11.13;;;;;;;10.57;60.92;96247.38;5026917;28;20194;-68
2022/10/28 06:24:40;;;;;;;19.45;11.80;;;;;;;10.63;60.79;96246.06;5025447;28;20220;-68
2022/10/28 06:27:06;;;;;;;16.42;10.88;;;;;;;10.60;60.72;96241.03;5028747;28;20225;-69
2022/10/28 06:29:33;;;;;;;19.60;10.55;;;;;;;10.68;60.64;96248.31;5021929;28;20281;-69
2022/10/28 06:31:58;;;;;;;16.38;10.20;;;;;;;10.72;60.25;96244.47;5029560;28;20194;-69
2022/10/28 06:34:23;;;;;;;13.68;8.77;;;;;;;10.82;59.88;96246.28;5026840;28;20637;-69
2022/10/28 06:36:49;;;;;;;16.70;9.93;;;;;;;10.82;59.21;96248.03;5024118;28;20284;-69
2022/10/28 06:39:15;;;;;;;15.23;8.30;;;;;;;10.96;58.87;96252.19;5025690;28;20271;-69
2022/10/28 06:41:41;;;;;;;12.57;8.75;;;;;;;10.97;58.56;96248.63;5028628;28;20194;-66
2022/10/28 06:44:06;;;;;;;12.23;7.88;;;;;;;11.15;57.90;96241.88;5028008;28;20649;-66
2022/10/28 06:46:31;;;;;;;18.83;10.82;;;;;;;11.20;57.79;96238.84;5023723;28;20286;-68
2022/10/28 06:48:57;;;;;;;14.02;10.32;;;;;;;11.36;57.49;96244.53;5027534;28;20183;-69
2022/10/28 06:51:23;;;;;;;12.27;7.72;;;;;;;11.41;57.13;96246.78;5025301;28;20244;-70
2022/10/28 06:53:50;;;;;;;13.07;7.30;;;;;;;11.55;56.70;96243.84;5027532;28;20190;-69
2022/10/28 06:56:16;;;;;;;13.52;6.53;;;;;;;11.70;56.58;96247.00;5021702;28;20197;-69
2022/10/28 06:58:41;;;;;;;11.83;6.87;;;;;;;11.54;56.87;96238.69;5029089;28;20228;-70
2022/10/28 07:01:07;;;;;;;18.90;7.28;;;;;;;11.74;56.97;96245.78;5024674;28;20194;-69
2022/10/28 07:03:33;;;;;;;9.57;5.50;;;;;;;11.74;56.60;96235.25;5030564;28;20198;-69
2022/10/28 07:05:59;;;;;;;11.68;5.68;;;;;;;11.82;56.21;96245.13;5023834;28;20179;-69
2022/10/28 07:08:26;;;;;;;10.38;6.28;;;;;;;11.94;55.96;96244.13;5029920;28;20266;-69
2022/10/28 07:10:56;;;;;;;13.23;6.30;;;;;;;11.85;55.97;96235.16;5025272;28;20206;-69
2022/10/28 07:13:23;;;;;;;8.60;5.68;;;;;;;12.00;55.57;96237.50;5030300;28;20221;-68
2022/10/28 07:15:57;;;;;;;9.30;6.28;;;;;;;12.04;55.44;96247.66;5025605;28;20186;-69
2022/10/28 07:18:24;;;;;;;10.32;6.95;;;;;;;12.18;55.10;96246.47;5027483;28;20202;-69
2022/10/28 07:20:50;;;;;;;8.70;6.10;;;;;;;12.38;54.35;96251.84;5028371;28;20178;-68
2022/10/28 07:23:16;;;;;;;11.38;6.28;;;;;;;12.50;54.27;96242.84;5027725;28;21551;-68
2022/10/28 07:25:41;;;;;;;9.02;5.75;;;;;;;12.36;54.72;96242.25;5029256;28;20205;-68
2022/10/28 07:28:07;;;;;;;9.70;6.15;;;;;;;12.26;55.28;96248.44;5022780;28;20618;-67
2022/10/28 07:30:33;;;;;;;7.93;6.28;;;;;;;12.26;54.95;96251.91;5026896;28;20232;-69
2022/10/28 07:33:00;;;;;;;12.35;7.10;;;;;;;12.34;54.68;96246.81;5029778;28;20186;-69
2022/10/28 07:35:29;;;;;;;9.30;7.00;;;;;;;12.13;55.33;96248.66;5026806;28;20265;-69
2022/10/28 07:37:55;;;;;;;13.18;7.53;;;;;;;12.19;55.01;96239.38;5028421;28;20241;-68
2022/10/28 07:40:22;;;;;;;11.30;8.40;;;;;;;12.40;54.70;96242.81;5027086;28;20190;-68
2022/10/28 07:42:47;;;;;;;11.65;8.55;;;;;;;12.45;54.33;96237.13;5028493;28;20522;-69
2022/10/28 07:45:13;;;;;;;12.65;8.05;;;;;;;12.56;54.13;96234.41;5024198;28;20196;-69
2022/10/28 07:47:39;;;;;;;12.15;8.38;;;;;;;12.40;54.59;96245.44;5026572;28;20217;-70
2022/10/28 07:50:06;;;;;;;14.95;9.20;;;;;;;12.57;54.34;96236.09;5028824;28;20277;-70
2022/10/28 07:52:34;;;;;;;9.15;7.68;;;;;;;12.70;54.01;96239.31;5013544;28;20189;-70
2022/10/28 07:54:59;;;;;;;10.82;8.65;;;;;;;12.62;53.87;96239.16;5026001;28;20282;-69
2022/10/28 07:57:25;;;;;;;14.00;9.13;;;;;;;12.79;53.31;96241.13;5025613;28;20281;-69
2022/10/28 07:59:50;;;;;;;10.63;8.55;;;;;;;12.92;53.22;96234.78;5029359;28;20186;-70
2022/10/28 08:02:19;;;;;;;10.85;8.73;;;;;;;13.08;52.64;96235.06;5027960;28;20193;-69
2022/10/28 08:04:44;;;;;;;14.85;9.18;;;;;;;12.99;52.83;96236.75;5024603;28;20243;-69
2022/10/28 08:07:11;;;;;;;13.20;8.82;;;;;;;12.92;52.91;96240.88;5030093;28;20181;-67
2022/10/28 08:09:36;;;;;;;13.27;9.65;;;;;;;13.03;52.58;96232.84;5029074;28;20194;-69
2022/10/28 08:12:02;;;;;;;16.42;10.90;;;;;;;13.14;52.71;96237.16;5027911;28;20187;-68
2022/10/28 08:14:27;;;;;;;16.58;10.70;;;;;;;13.13;52.21;96235.50;5031205;28;20660;-67
2022/10/28 08:16:53;;;;;;;12.05;10.00;;;;;;;13.17;52.11;96242.16;5028615;28;20631;-69
2022/10/28 08:19:18;;;;;;;12.93;10.80;;;;;;;13.22;52.31;96233.84;5032714;28;20747;-68
2022/10/28 08:21:44;;;;;;;13.68;9.90;;;;;;;13.31;51.91;96235.69;5030149;28;20194;-69
2022/10/28 08:24:09;;;;;;;13.73;10.05;;;;;;;13.40;51.87;96240.13;5030780;28;20185;-69
2022/10/28 08:26:34;;;;;;;13.95;10.18;;;;;;;13.58;51.61;96237.63;5031173;28;20186;-68
2022/10/28 08:29:00;;;;;;;12.80;9.88;;;;;;;13.59;51.47;96234.00;5028766;28;20189;-68
2022/10/28 08:31:26;;;;;;;17.70;9.95;;;;;;;13.65;51.45;96243.16;5029018;28;20669;-69
2022/10/28 08:33:51;;;;;;;16.92;10.93;;;;;;;13.66;51.34;96239.56;5031207;28;20190;-70
2022/10/28 08:36:17;;;;;;;13.35;11.32;;;;;;;13.63;51.30;96238.03;5031724;28;20189;-70
2022/10/28 08:38:44;;;;;;;16.25;11.25;;;;;;;13.92;50.97;96239.78;5028676;28;20241;-70
2022/10/28 08:41:16;;;;;;;17.25;10.95;;;;;;;14.06;50.75;96239.34;5028560;28;20182;-70
2022/10/28 08:44:10;;;;;;;13.85;10.95;;;;;;;14.18;50.46;96240.00;5043518;28;20880;-70
2022/10/28 08:47:00;;;;;;;15.20;11.15;;;;;;;14.27;50.07;96238.31;5044098;28;20202;-70
2022/10/28 08:49:29;;;;;;;17.05;10.82;;;;;;;14.32;49.73;96233.41;5024916;28;20187;-70
2022/10/28 08:52:38;;;;;;;17.27;10.88;;;;;;;14.43;49.49;96238.50;5028597;28;20201;-69
2022/10/28 08:55:11;;;;;;;17.50;10.65;;;;;;;14.46;48.99;96227.66;4975787;28;20213;-71
2022/10/28 08:57:49;;;;;;;14.45;10.57;;;;;;;14.52;48.90;96224.44;4975441;28;20219;-70
2022/10/28 09:00:17;;;;;;;13.48;9.07;;;;;;;14.68;48.86;96230.94;4992200;28;20614;-72
2022/10/28 09:03:10;;;;;;;13.45;9.27;;;;;;;14.81;48.07;96225.25;4974557;28;20195;-70
2022/10/28 09:05:40;;;;;;;15.75;9.40;;;;;;;14.89;48.08;96233.31;4974073;28;20202;-72
2022/10/28 09:08:16;;;;;;;15.35;9.98;;;;;;;14.88;48.49;96219.22;4970918;28;20640;-71
2022/10/28 09:11:09;;;;;;;12.20;8.88;;;;;;;15.09;47.46;96215.47;4975431;28;20199;-69
2022/10/28 09:13:47;;;;;;;12.63;8.57;;;;;;;15.09;47.67;96215.47;4975798;28;20199;-68
2022/10/28 09:16:50;;;;;;;14.43;8.30;;;;;;;15.21;47.69;96214.28;4974341;28;20434;-69
2022/10/28 09:19:47;;;;;;;13.57;8.60;;;;;;;15.51;47.07;96206.94;4973663;28;20195;-69
2022/10/28 09:22:31;;;;;;;9.65;8.48;;;;;;;15.62;46.42;96214.63;4974681;28;20258;-69
2022/10/28 09:25:10;;;;;;;8.65;7.72;;;;;;;15.56;47.12;96202.84;4975594;28;20207;-69
2022/10/28 09:28:10;;;;;;;15.48;8.43;;;;;;;15.75;46.58;96203.66;4972654;28;20207;-70
2022/10/28 09:30:44;;;;;;;9.35;8.25;;;;;;;15.88;45.77;96199.63;5019832;28;20278;-69
2022/10/28 09:33:37;;;;;;;15.52;9.18;;;;;;;15.95;46.07;96199.81;5031074;28;20543;-69
2022/10/28 09:36:05;;;;;;;11.38;8.02;;;;;;;16.09;45.17;96188.66;5026221;28;20189;-69
2022/10/28 09:38:34;;;;;;;8.65;7.32;;;;;;;16.04;45.42;96182.97;5023601;28;20250;-69
2022/10/28 09:41:08;;;;;;;12.70;8.52;;;;;;;16.16;45.36;96178.22;5026579;28;20217;-70
2022/10/28 09:43:41;;;;;;;11.73;8.48;;;;;;;16.03;45.53;96180.47;5027560;28;20624;-71
2022/10/28 09:46:12;;;;;;;14.68;8.20;;;;;;;16.28;45.12;96162.88;5026783;28;20716;-70
2022/10/28 09:48:46;;;;;;;11.40;7.97;;;;;;;16.50;45.17;96162.28;5029319;28;20674;-68
2022/10/28 09:51:43;;;;;;;12.90;7.88;;;;;;;16.57;44.58;96157.16;5023645;28;20534;-73
2022/10/28 09:54:11;;;;;;;11.45;7.88;;;;;;;16.45;44.21;96158.44;5024456;28;20194;-68
2022/10/28 09:56:36;;;;;;;13.02;7.63;;;;;;;16.66;44.24;96152.72;5028681;28;20217;-68
2022/10/28 09:59:03;;;;;;;8.77;7.40;;;;;;;16.92;43.84;96145.50;5027487;28;20233;-67
2022/10/28 10:01:42;;;;;;;9.38;5.93;;;;;;;16.89;43.51;96147.63;5029955;28;20205;-66
2022/10/28 10:04:19;;;;;;;9.13;6.00;;;;;;;17.05;43.33;96144.19;5020619;28;20185;-67
2022/10/28 10:06:47;;;;;;;15.02;5.95;;;;;;;17.33;42.60;96144.72;5029307;28;20186;-68
2022/10/28 10:09:24;;;;;;;9.88;5.45;;;;;;;17.55;42.53;96144.03;5026782;28;20209;-66
2022/10/28 10:11:52;;;;;;;7.72;5.53;;;;;;;17.71;42.41;96129.88;5028917;28;20217;-66
2022/10/28 10:14:25;;;;;;;8.00;5.30;;;;;;;17.91;41.92;96130.38;5040149;28;20279;-66
2022/10/28 10:17:05;;;;;;;8.95;4.93;;;;;;;17.98;41.32;96141.16;5029567;28;20224;-69
2022/10/28 10:20:01;;;;;;;10.32;5.55;;;;;;;18.01;41.44;96135.50;5029753;28;20296;-66
2022/10/28 10:22:48;;;;;;;9.93;5.43;;;;;;;18.27;41.86;96129.94;5018602;28;20279;-69
2022/10/28 10:25:16;;;;;;;6.80;4.82;;;;;;;18.28;40.55;96121.78;5028518;28;20228;-68
2022/10/28 10:27:56;;;;;;;8.48;4.63;;;;;;;18.51;40.52;96124.50;5027852;28;20209;-70
2022/10/28 10:30:37;;;;;;;7.75;4.45;;;;;;;18.50;39.91;96108.72;5029483;28;20197;-70
2022/10/28 10:33:04;;;;;;;7.03;4.22;;;;;;;18.48;39.94;96110.72;5026522;28;20206;-68
2022/10/28 10:35:32;;;;;;;8.18;4.32;;;;;;;18.34;40.53;96108.78;5029293;28;20606;-68
2022/10/28 10:38:01;;;;;;;5.88;4.38;;;;;;;18.59;39.65;96114.81;5027109;28;20235;-69
2022/10/28 10:40:37;;;;;;;5.20;3.70;;;;;;;18.89;39.93;96108.66;5030274;28;20584;-68
2022/10/28 10:43:32;;;;;;;5.20;3.30;;;;;;;18.95;38.60;96102.63;5017522;28;20201;-69
2022/10/28 10:45:59;;;;;;;3.45;3.15;;;;;;;19.10;37.78;96109.84;5029055;28;20186;-70
2022/10/28 10:48:25;;;;;;;4.13;3.72;;;;;;;19.18;37.47;96109.78;5027016;28;20186;-70
2022/10/28 10:50:52;;;;;;;3.53;2.90;;;;;;;19.12;37.40;96108.66;5028377;28;20617;-71
2022/10/28 10:53:30;;;;;;;7.40;3.28;;;;;;;19.53;36.83;96096.84;5019763;28;20229;-71
2022/10/28 10:56:02;;;;;;;4.47;3.63;;;;;;;19.57;36.28;96096.28;5029182;28;20588;-70
2022/10/28 10:58:31;;;;;;;5.40;3.25;;;;;;;19.55;36.17;96092.97;5029555;28;20275;-70
2022/10/28 11:01:00;;;;;;;4.93;2.90;;;;;;;19.69;36.33;96093.22;5027906;28;20460;-67
2022/10/28 11:03:28;;;;;;;4.03;3.30;;;;;;;19.68;36.23;96092.38;5028986;28;20178;-69
2022/10/28 11:05:56;;;;;;;3.58;2.72;;;;;;;19.75;35.34;96093.31;5026446;28;20193;-70
2022/10/28 11:08:32;;;;;;;7.65;2.75;;;;;;;19.77;34.70;96085.94;5023896;28;20218;-70
2022/10/28 11:11:09;;;;;;;7.30;2.92;;;;;;;19.92;33.86;96075.28;5027869;28;20248;-71
2022/10/28 11:13:35;;;;;;;3.80;2.95;;;;;;;19.91;34.09;96076.28;5022476;28;20589;-69
2022/10/28 11:16:18;;;;;;;4.22;3.28;;;;;;;20.12;34.16;96078.22;5023947;28;20257;-69
2022/10/28 11:18:46;;;;;;;6.15;2.75;;;;;;;20.12;34.10;96072.88;5023525;28;20205;-69
2022/10/28 11:21:24;;;;;;;3.30;3.00;;;;;;;19.86;33.01;96065.34;5026545;28;20185;-68
2022/10/28 11:24:08;;;;;;;4.38;2.95;;;;;;;20.19;33.72;96063.13;5021787;28;20221;-70
2022/10/28 11:26:42;;;;;;;2.97;2.55;;;;;;;20.51;33.85;96071.72;5022095;28;20277;-71
2022/10/28 11:29:10;;;;;;;3.17;2.50;;;;;;;20.53;31.03;96060.84;5019807;28;20190;-69
2022/10/28 11:31:51;;;;;;;2.90;2.05;;;;;;;20.93;30.53;96054.13;5023257;28;20187;-69
2022/10/28 11:34:42;;;;;;;6.07;2.70;;;;;;;21.30;30.17;96063.72;5026611;28;20684;-70
2022/10/28 11:37:46;;;;;;;3.92;2.78;;;;;;;21.85;29.16;96053.22;5029339;28;20198;-70
2022/10/28 11:40:45;;;;;;;3.22;2.80;;;;;;;30.59;18.35;96049.78;5030645;28;20229;-66
2022/10/28 11:43:50;;;;;;;5.90;2.33;;;;;;;37.93;11.28;96053.13;5030726;28;20196;-65
2022/10/28 11:46:37;;;;;;;3.08;2.78;;;;;;;40.01;9.73;96055.63;5028174;28;20213;-66
2022/10/28 11:49:33;;;;;;;6.55;2.60;;;;;;;41.31;8.95;96060.81;5028115;28;20190;-72